sensor_id;sensor_type;location;lat;lon;timestamp;P1;durP1;ratioP1;P2;durP2;ratioP2
22549;SDS011;11441;57.164;-2.120;2022-11-13T00:02:28;6.13;;;5.53;;
22549;SDS011;11441;57.164;-2.120;2022-11-13T00:05:13;7.57;;;5.63;;
22549;SDS011;11441;57.164;-2.120;2022-11-13T00:07:59;7.22;;;6.00;;
22549;SDS011;11441;57.164;-2.120;2022-11-13T00:10:44;7.30;;;6.50;;
22549;SDS011;11441;57.164;-2.120;2022-11-13T00:13:30;7.95;;;6.72;;
22549;SDS011;11441;57.164;-2.120;2022-11-13T00:16:16;8.30;;;6.13;;
22549;SDS011;11441;57.164;-2.120;2022-11-13T00:19:03;6.88;;;6.15;;
22549;SDS011;11441;57.164;-2.120;2022-11-13T00:21:49;7.30;;;6.20;;
22549;SDS011;11441;57.164;-2.120;2022-11-13T00:24:34;7.07;;;5.82;;
22549;SDS011;11441;57.164;-2.120;2022-11-13T00:27:19;7.47;;;6.22;;
22549;SDS011;11441;57.164;-2.120;2022-11-13T00:30:05;11.35;;;6.13;;
22549;SDS011;11441;57.164;-2.120;2022-11-13T00:32:50;7.70;;;6.10;;
22549;SDS011;11441;57.164;-2.120;2022-11-13T00:35:36;10.38;;;6.72;;
22549;SDS011;11441;57.164;-2.120;2022-11-13T00:38:21;10.77;;;7.47;;
22549;SDS011;11441;57.164;-2.120;2022-11-13T00:41:07;7.18;;;6.47;;
22549;SDS011;11441;57.164;-2.120;2022-11-13T00:43:52;6.47;;;5.47;;
22549;SDS011;11441;57.164;-2.120;2022-11-13T00:46:37;5.45;;;4.70;;
22549;SDS011;11441;57.164;-2.120;2022-11-13T00:49:23;7.20;;;4.72;;
22549;SDS011;11441;57.164;-2.120;2022-11-13T00:52:08;8.48;;;5.53;;
22549;SDS011;11441;57.164;-2.120;2022-11-13T00:54:54;8.45;;;5.70;;
22549;SDS011;11441;57.164;-2.120;2022-11-13T00:57:39;4.60;;;4.15;;
22549;SDS011;11441;57.164;-2.120;2022-11-13T01:00:24;5.57;;;4.03;;
22549;SDS011;11441;57.164;-2.120;2022-11-13T01:03:10;6.18;;;4.80;;
22549;SDS011;11441;57.164;-2.120;2022-11-13T01:05:56;7.45;;;5.05;;
22549;SDS011;11441;57.164;-2.120;2022-11-13T01:08:41;5.78;;;4.60;;
22549;SDS011;11441;57.164;-2.120;2022-11-13T01:11:28;6.30;;;4.85;;
22549;SDS011;11441;57.164;-2.120;2022-11-13T01:14:14;6.35;;;5.28;;
22549;SDS011;11441;57.164;-2.120;2022-11-13T01:16:59;8.38;;;5.20;;
22549;SDS011;11441;57.164;-2.120;2022-11-13T01:19:44;8.20;;;5.55;;
22549;SDS011;11441;57.164;-2.120;2022-11-13T01:22:30;6.30;;;5.57;;
22549;SDS011;11441;57.164;-2.120;2022-11-13T01:25:16;6.97;;;5.25;;
22549;SDS011;11441;57.164;-2.120;2022-11-13T01:28:02;10.13;;;5.20;;
22549;SDS011;11441;57.164;-2.120;2022-11-13T01:30:47;8.93;;;6.18;;
22549;SDS011;11441;57.164;-2.120;2022-11-13T01:33:51;8.02;;;7.15;;
22549;SDS011;11441;57.164;-2.120;2022-11-13T01:36:36;12.63;;;7.72;;
22549;SDS011;11441;57.164;-2.120;2022-11-13T01:39:21;10.48;;;7.45;;
22549;SDS011;11441;57.164;-2.120;2022-11-13T01:42:07;7.82;;;6.72;;
22549;SDS011;11441;57.164;-2.120;2022-11-13T01:44:53;9.43;;;7.35;;
22549;SDS011;11441;57.164;-2.120;2022-11-13T01:47:59;9.63;;;6.95;;
22549;SDS011;11441;57.164;-2.120;2022-11-13T01:50:44;9.25;;;7.32;;
22549;SDS011;11441;57.164;-2.120;2022-11-13T01:53:30;9.57;;;7.60;;
22549;SDS011;11441;57.164;-2.120;2022-11-13T01:56:15;10.75;;;6.32;;
22549;SDS011;11441;57.164;-2.120;2022-11-13T01:59:09;8.30;;;7.13;;
22549;SDS011;11441;57.164;-2.120;2022-11-13T02:01:58;9.32;;;6.95;;
22549;SDS011;11441;57.164;-2.120;2022-11-13T02:04:44;11.77;;;7.43;;
22549;SDS011;11441;57.164;-2.120;2022-11-13T02:07:29;10.50;;;6.47;;
22549;SDS011;11441;57.164;-2.120;2022-11-13T02:10:33;6.20;;;5.60;;
22549;SDS011;11441;57.164;-2.120;2022-11-13T02:13:18;8.02;;;5.78;;
22549;SDS011;11441;57.164;-2.120;2022-11-13T02:16:05;10.00;;;6.45;;
22549;SDS011;11441;57.164;-2.120;2022-11-13T02:18:53;6.60;;;4.97;;
22549;SDS011;11441;57.164;-2.120;2022-11-13T02:21:41;5.75;;;4.45;;
22549;SDS011;11441;57.164;-2.120;2022-11-13T02:24:42;5.38;;;4.55;;
22549;SDS011;11441;57.164;-2.120;2022-11-13T02:27:37;8.18;;;5.10;;
22549;SDS011;11441;57.164;-2.120;2022-11-13T02:30:27;7.03;;;3.72;;
22549;SDS011;11441;57.164;-2.120;2022-11-13T02:33:21;5.43;;;4.82;;
22549;SDS011;11441;57.164;-2.120;2022-11-13T02:36:07;7.38;;;4.38;;
22549;SDS011;11441;57.164;-2.120;2022-11-13T02:38:54;7.30;;;5.18;;
22549;SDS011;11441;57.164;-2.120;2022-11-13T02:41:43;5.60;;;4.28;;
22549;SDS011;11441;57.164;-2.120;2022-11-13T02:44:28;3.85;;;3.53;;
22549;SDS011;11441;57.164;-2.120;2022-11-13T02:47:13;7.63;;;4.10;;
22549;SDS011;11441;57.164;-2.120;2022-11-13T02:49:59;5.22;;;3.92;;
22549;SDS011;11441;57.164;-2.120;2022-11-13T02:52:44;7.78;;;4.18;;
22549;SDS011;11441;57.164;-2.120;2022-11-13T02:55:29;4.72;;;4.03;;
22549;SDS011;11441;57.164;-2.120;2022-11-13T02:58:15;6.72;;;4.63;;
22549;SDS011;11441;57.164;-2.120;2022-11-13T03:01:01;6.07;;;4.30;;
22549;SDS011;11441;57.164;-2.120;2022-11-13T03:03:48;6.30;;;4.45;;
22549;SDS011;11441;57.164;-2.120;2022-11-13T03:06:42;7.38;;;4.32;;
22549;SDS011;11441;57.164;-2.120;2022-11-13T03:09:27;7.57;;;4.38;;
22549;SDS011;11441;57.164;-2.120;2022-11-13T03:12:12;4.40;;;4.00;;
22549;SDS011;11441;57.164;-2.120;2022-11-13T03:18:03;5.75;;;3.60;;
22549;SDS011;11441;57.164;-2.120;2022-11-13T03:20:50;6.65;;;4.88;;
22549;SDS011;11441;57.164;-2.120;2022-11-13T03:23:38;8.35;;;4.32;;
22549;SDS011;11441;57.164;-2.120;2022-11-13T03:26:25;7.70;;;5.35;;
22549;SDS011;11441;57.164;-2.120;2022-11-13T03:29:12;6.70;;;4.43;;
22549;SDS011;11441;57.164;-2.120;2022-11-13T03:31:57;4.43;;;3.95;;
22549;SDS011;11441;57.164;-2.120;2022-11-13T03:34:42;5.95;;;4.32;;
22549;SDS011;11441;57.164;-2.120;2022-11-13T03:37:46;7.93;;;3.78;;
22549;SDS011;11441;57.164;-2.120;2022-11-13T03:40:31;13.23;;;4.75;;
22549;SDS011;11441;57.164;-2.120;2022-11-13T03:43:17;6.22;;;4.00;;
22549;SDS011;11441;57.164;-2.120;2022-11-13T03:46:02;9.40;;;4.65;;
22549;SDS011;11441;57.164;-2.120;2022-11-13T03:48:48;6.93;;;4.78;;
22549;SDS011;11441;57.164;-2.120;2022-11-13T03:51:33;10.13;;;4.43;;
22549;SDS011;11441;57.164;-2.120;2022-11-13T03:54:19;14.50;;;5.70;;
22549;SDS011;11441;57.164;-2.120;2022-11-13T03:57:04;9.98;;;5.25;;
22549;SDS011;11441;57.164;-2.120;2022-11-13T03:59:49;8.63;;;4.65;;
22549;SDS011;11441;57.164;-2.120;2022-11-13T04:02:34;9.40;;;5.10;;
22549;SDS011;11441;57.164;-2.120;2022-11-13T04:05:38;8.60;;;5.15;;
22549;SDS011;11441;57.164;-2.120;2022-11-13T04:08:23;9.15;;;5.20;;
22549;SDS011;11441;57.164;-2.120;2022-11-13T04:11:10;12.45;;;6.00;;
22549;SDS011;11441;57.164;-2.120;2022-11-13T04:13:56;12.95;;;6.07;;
22549;SDS011;11441;57.164;-2.120;2022-11-13T04:16:42;10.52;;;5.75;;
22549;SDS011;11441;57.164;-2.120;2022-11-13T04:19:27;19.67;;;6.68;;
22549;SDS011;11441;57.164;-2.120;2022-11-13T04:22:13;9.68;;;5.68;;
22549;SDS011;11441;57.164;-2.120;2022-11-13T04:24:58;14.18;;;6.03;;
22549;SDS011;11441;57.164;-2.120;2022-11-13T04:27:43;21.55;;;7.40;;
22549;SDS011;11441;57.164;-2.120;2022-11-13T04:30:29;16.15;;;6.88;;
22549;SDS011;11441;57.164;-2.120;2022-11-13T04:33:14;10.73;;;5.78;;
22549;SDS011;11441;57.164;-2.120;2022-11-13T04:36:00;12.65;;;7.85;;
22549;SDS011;11441;57.164;-2.120;2022-11-13T04:38:45;11.55;;;6.43;;
22549;SDS011;11441;57.164;-2.120;2022-11-13T04:41:30;13.90;;;7.93;;
22549;SDS011;11441;57.164;-2.120;2022-11-13T04:44:39;14.68;;;7.95;;
22549;SDS011;11441;57.164;-2.120;2022-11-13T04:47:24;15.60;;;9.23;;
22549;SDS011;11441;57.164;-2.120;2022-11-13T04:50:10;20.35;;;9.10;;
22549;SDS011;11441;57.164;-2.120;2022-11-13T04:52:56;20.65;;;9.25;;
22549;SDS011;11441;57.164;-2.120;2022-11-13T04:55:41;12.65;;;8.07;;
22549;SDS011;11441;57.164;-2.120;2022-11-13T04:58:26;15.02;;;8.30;;
22549;SDS011;11441;57.164;-2.120;2022-11-13T05:01:12;14.43;;;7.35;;
22549;SDS011;11441;57.164;-2.120;2022-11-13T05:03:58;13.13;;;8.05;;
22549;SDS011;11441;57.164;-2.120;2022-11-13T05:06:43;18.55;;;8.77;;
22549;SDS011;11441;57.164;-2.120;2022-11-13T05:09:28;18.48;;;10.20;;
22549;SDS011;11441;57.164;-2.120;2022-11-13T05:12:13;19.98;;;11.68;;
22549;SDS011;11441;57.164;-2.120;2022-11-13T05:14:59;22.98;;;11.10;;
22549;SDS011;11441;57.164;-2.120;2022-11-13T05:17:47;18.02;;;11.95;;
22549;SDS011;11441;57.164;-2.120;2022-11-13T05:20:32;23.10;;;16.20;;
22549;SDS011;11441;57.164;-2.120;2022-11-13T05:23:18;24.88;;;14.68;;
22549;SDS011;11441;57.164;-2.120;2022-11-13T05:26:04;25.40;;;18.92;;
22549;SDS011;11441;57.164;-2.120;2022-11-13T05:28:51;39.63;;;20.80;;
22549;SDS011;11441;57.164;-2.120;2022-11-13T05:31:36;26.15;;;18.50;;
22549;SDS011;11441;57.164;-2.120;2022-11-13T05:34:22;24.95;;;18.23;;
22549;SDS011;11441;57.164;-2.120;2022-11-13T05:37:07;39.10;;;28.33;;
22549;SDS011;11441;57.164;-2.120;2022-11-13T05:39:53;41.33;;;27.88;;
22549;SDS011;11441;57.164;-2.120;2022-11-13T05:42:38;48.88;;;31.25;;
22549;SDS011;11441;57.164;-2.120;2022-11-13T05:45:23;44.30;;;27.50;;
22549;SDS011;11441;57.164;-2.120;2022-11-13T05:48:09;41.88;;;28.85;;
22549;SDS011;11441;57.164;-2.120;2022-11-13T05:50:59;53.70;;;33.28;;
22549;SDS011;11441;57.164;-2.120;2022-11-13T05:53:49;61.22;;;34.20;;
22549;SDS011;11441;57.164;-2.120;2022-11-13T05:56:35;53.30;;;28.92;;
22549;SDS011;11441;57.164;-2.120;2022-11-13T05:59:20;51.28;;;29.17;;
22549;SDS011;11441;57.164;-2.120;2022-11-13T06:02:06;55.40;;;30.40;;
22549;SDS011;11441;57.164;-2.120;2022-11-13T06:04:51;57.30;;;32.08;;
22549;SDS011;11441;57.164;-2.120;2022-11-13T06:07:40;53.30;;;28.52;;
22549;SDS011;11441;57.164;-2.120;2022-11-13T06:10:25;58.67;;;31.50;;
22549;SDS011;11441;57.164;-2.120;2022-11-13T06:13:11;64.40;;;29.83;;
22549;SDS011;11441;57.164;-2.120;2022-11-13T06:16:03;75.75;;;34.40;;
22549;SDS011;11441;57.164;-2.120;2022-11-13T06:18:53;73.53;;;28.63;;
22549;SDS011;11441;57.164;-2.120;2022-11-13T06:21:43;68.57;;;32.25;;
22549;SDS011;11441;57.164;-2.120;2022-11-13T06:24:28;78.43;;;35.58;;
22549;SDS011;11441;57.164;-2.120;2022-11-13T06:27:13;69.68;;;33.22;;
22549;SDS011;11441;57.164;-2.120;2022-11-13T06:29:59;64.35;;;33.17;;
22549;SDS011;11441;57.164;-2.120;2022-11-13T06:32:44;60.00;;;29.08;;
22549;SDS011;11441;57.164;-2.120;2022-11-13T06:35:36;57.90;;;30.25;;
22549;SDS011;11441;57.164;-2.120;2022-11-13T06:38:22;77.35;;;36.58;;
22549;SDS011;11441;57.164;-2.120;2022-11-13T06:41:08;77.97;;;33.70;;
22549;SDS011;11441;57.164;-2.120;2022-11-13T06:43:54;72.75;;;33.65;;
22549;SDS011;11441;57.164;-2.120;2022-11-13T06:46:46;54.55;;;27.52;;
22549;SDS011;11441;57.164;-2.120;2022-11-13T06:49:32;78.55;;;34.20;;
22549;SDS011;11441;57.164;-2.120;2022-11-13T06:52:17;73.70;;;37.40;;
22549;SDS011;11441;57.164;-2.120;2022-11-13T06:55:03;72.50;;;35.03;;
22549;SDS011;11441;57.164;-2.120;2022-11-13T06:57:48;56.75;;;31.38;;
22549;SDS011;11441;57.164;-2.120;2022-11-13T07:00:34;69.72;;;32.53;;
22549;SDS011;11441;57.164;-2.120;2022-11-13T07:03:23;59.78;;;31.38;;
22549;SDS011;11441;57.164;-2.120;2022-11-13T07:06:10;56.55;;;29.45;;
22549;SDS011;11441;57.164;-2.120;2022-11-13T07:08:58;69.15;;;34.15;;
22549;SDS011;11441;57.164;-2.120;2022-11-13T07:11:43;57.65;;;31.90;;
22549;SDS011;11441;57.164;-2.120;2022-11-13T07:14:28;49.53;;;27.38;;
22549;SDS011;11441;57.164;-2.120;2022-11-13T07:17:14;65.30;;;29.67;;
22549;SDS011;11441;57.164;-2.120;2022-11-13T07:19:59;75.72;;;28.65;;
22549;SDS011;11441;57.164;-2.120;2022-11-13T07:22:44;96.32;;;29.02;;
22549;SDS011;11441;57.164;-2.120;2022-11-13T07:25:30;115.28;;;29.02;;
22549;SDS011;11441;57.164;-2.120;2022-11-13T07:28:15;142.48;;;29.73;;
22549;SDS011;11441;57.164;-2.120;2022-11-13T07:34:05;90.47;;;28.13;;
22549;SDS011;11441;57.164;-2.120;2022-11-13T07:36:51;85.60;;;29.10;;
22549;SDS011;11441;57.164;-2.120;2022-11-13T07:39:36;59.83;;;25.83;;
22549;SDS011;11441;57.164;-2.120;2022-11-13T07:42:22;48.15;;;24.60;;
22549;SDS011;11441;57.164;-2.120;2022-11-13T07:45:07;64.68;;;25.50;;
22549;SDS011;11441;57.164;-2.120;2022-11-13T07:48:11;67.05;;;26.63;;
22549;SDS011;11441;57.164;-2.120;2022-11-13T07:51:00;58.00;;;23.10;;
22549;SDS011;11441;57.164;-2.120;2022-11-13T07:53:46;89.43;;;24.15;;
22549;SDS011;11441;57.164;-2.120;2022-11-13T07:56:32;90.47;;;27.08;;
22549;SDS011;11441;57.164;-2.120;2022-11-13T07:59:17;80.60;;;28.23;;
22549;SDS011;11441;57.164;-2.120;2022-11-13T08:02:03;79.70;;;25.00;;
22549;SDS011;11441;57.164;-2.120;2022-11-13T08:04:49;60.40;;;24.95;;
22549;SDS011;11441;57.164;-2.120;2022-11-13T08:10:57;56.20;;;21.35;;
22549;SDS011;11441;57.164;-2.120;2022-11-13T08:16:46;67.50;;;22.23;;
22549;SDS011;11441;57.164;-2.120;2022-11-13T08:19:31;47.38;;;18.95;;
22549;SDS011;11441;57.164;-2.120;2022-11-13T08:22:16;63.35;;;22.08;;
22549;SDS011;11441;57.164;-2.120;2022-11-13T08:25:02;55.97;;;22.73;;
22549;SDS011;11441;57.164;-2.120;2022-11-13T08:27:48;86.88;;;25.85;;
22549;SDS011;11441;57.164;-2.120;2022-11-13T08:30:36;60.28;;;22.95;;
22549;SDS011;11441;57.164;-2.120;2022-11-13T08:33:22;31.83;;;16.90;;
22549;SDS011;11441;57.164;-2.120;2022-11-13T08:36:08;48.22;;;21.70;;
22549;SDS011;11441;57.164;-2.120;2022-11-13T08:38:54;36.58;;;18.13;;
22549;SDS011;11441;57.164;-2.120;2022-11-13T08:41:40;44.20;;;21.33;;
22549;SDS011;11441;57.164;-2.120;2022-11-13T08:44:25;43.45;;;20.15;;
22549;SDS011;11441;57.164;-2.120;2022-11-13T08:47:10;47.20;;;21.45;;
22549;SDS011;11441;57.164;-2.120;2022-11-13T08:49:56;37.38;;;20.58;;
22549;SDS011;11441;57.164;-2.120;2022-11-13T08:52:41;50.00;;;21.70;;
22549;SDS011;11441;57.164;-2.120;2022-11-13T08:55:26;40.28;;;18.35;;
22549;SDS011;11441;57.164;-2.120;2022-11-13T08:58:12;33.50;;;18.17;;
22549;SDS011;11441;57.164;-2.120;2022-11-13T09:00:59;34.90;;;20.10;;
22549;SDS011;11441;57.164;-2.120;2022-11-13T09:03:47;30.92;;;17.67;;
22549;SDS011;11441;57.164;-2.120;2022-11-13T09:06:33;30.40;;;17.13;;
22549;SDS011;11441;57.164;-2.120;2022-11-13T09:09:19;46.25;;;20.00;;
22549;SDS011;11441;57.164;-2.120;2022-11-13T09:12:06;29.35;;;16.27;;
22549;SDS011;11441;57.164;-2.120;2022-11-13T09:14:52;33.40;;;18.70;;
22549;SDS011;11441;57.164;-2.120;2022-11-13T09:17:37;30.88;;;16.65;;
22549;SDS011;11441;57.164;-2.120;2022-11-13T09:20:23;33.22;;;18.08;;
22549;SDS011;11441;57.164;-2.120;2022-11-13T09:23:09;28.23;;;16.42;;
22549;SDS011;11441;57.164;-2.120;2022-11-13T09:25:54;19.80;;;12.68;;
22549;SDS011;11441;57.164;-2.120;2022-11-13T09:28:40;26.98;;;16.30;;
22549;SDS011;11441;57.164;-2.120;2022-11-13T09:31:26;32.38;;;16.45;;
22549;SDS011;11441;57.164;-2.120;2022-11-13T09:34:11;32.50;;;17.17;;
22549;SDS011;11441;57.164;-2.120;2022-11-13T09:36:57;25.27;;;14.88;;
22549;SDS011;11441;57.164;-2.120;2022-11-13T09:39:42;24.80;;;14.98;;
22549;SDS011;11441;57.164;-2.120;2022-11-13T09:42:27;24.02;;;14.80;;
22549;SDS011;11441;57.164;-2.120;2022-11-13T09:45:15;23.58;;;13.88;;
22549;SDS011;11441;57.164;-2.120;2022-11-13T09:48:07;19.67;;;12.70;;
22549;SDS011;11441;57.164;-2.120;2022-11-13T09:51:04;25.70;;;15.35;;
22549;SDS011;11441;57.164;-2.120;2022-11-13T09:53:56;28.95;;;14.93;;
22549;SDS011;11441;57.164;-2.120;2022-11-13T09:56:51;23.00;;;13.15;;
22549;SDS011;11441;57.164;-2.120;2022-11-13T10:05:45;31.65;;;16.10;;
22549;SDS011;11441;57.164;-2.120;2022-11-13T10:12:05;33.05;;;15.80;;
22549;SDS011;11441;57.164;-2.120;2022-11-13T10:14:52;28.67;;;15.02;;
22549;SDS011;11441;57.164;-2.120;2022-11-13T10:18:02;30.35;;;15.35;;
22549;SDS011;11441;57.164;-2.120;2022-11-13T10:21:02;31.45;;;16.17;;
22549;SDS011;11441;57.164;-2.120;2022-11-13T10:23:54;30.90;;;14.52;;
22549;SDS011;11441;57.164;-2.120;2022-11-13T10:26:41;33.50;;;17.92;;
22549;SDS011;11441;57.164;-2.120;2022-11-13T10:29:45;24.23;;;13.40;;
22549;SDS011;11441;57.164;-2.120;2022-11-13T10:32:33;28.55;;;14.70;;
22549;SDS011;11441;57.164;-2.120;2022-11-13T10:41:29;58.47;;;16.55;;
22549;SDS011;11441;57.164;-2.120;2022-11-13T10:44:19;57.45;;;14.70;;
22549;SDS011;11441;57.164;-2.120;2022-11-13T10:47:13;40.15;;;13.60;;
22549;SDS011;11441;57.164;-2.120;2022-11-13T10:50:21;72.47;;;16.40;;
22549;SDS011;11441;57.164;-2.120;2022-11-13T10:53:14;67.47;;;14.02;;
22549;SDS011;11441;57.164;-2.120;2022-11-13T10:56:10;77.20;;;15.45;;
22549;SDS011;11441;57.164;-2.120;2022-11-13T10:59:09;58.47;;;14.88;;
22549;SDS011;11441;57.164;-2.120;2022-11-13T11:02:07;60.83;;;13.90;;
22549;SDS011;11441;57.164;-2.120;2022-11-13T11:05:02;58.13;;;13.70;;
22549;SDS011;11441;57.164;-2.120;2022-11-13T11:07:49;59.25;;;13.13;;
22549;SDS011;11441;57.164;-2.120;2022-11-13T11:10:35;69.72;;;17.15;;
22549;SDS011;11441;57.164;-2.120;2022-11-13T11:13:41;78.57;;;17.30;;
22549;SDS011;11441;57.164;-2.120;2022-11-13T11:16:27;62.95;;;18.02;;
22549;SDS011;11441;57.164;-2.120;2022-11-13T11:19:12;47.60;;;18.20;;
22549;SDS011;11441;57.164;-2.120;2022-11-13T11:22:12;46.75;;;17.85;;
22549;SDS011;11441;57.164;-2.120;2022-11-13T11:25:12;36.00;;;18.23;;
22549;SDS011;11441;57.164;-2.120;2022-11-13T11:28:06;27.17;;;16.48;;
22549;SDS011;11441;57.164;-2.120;2022-11-13T11:31:28;33.42;;;17.73;;
22549;SDS011;11441;57.164;-2.120;2022-11-13T11:37:38;33.25;;;18.85;;
22549;SDS011;11441;57.164;-2.120;2022-11-13T11:40:39;56.85;;;22.35;;
22549;SDS011;11441;57.164;-2.120;2022-11-13T11:46:12;61.75;;;23.83;;
22549;SDS011;11441;57.164;-2.120;2022-11-13T11:58:06;73.43;;;24.77;;
22549;SDS011;11441;57.164;-2.120;2022-11-13T12:35:31;37.60;;;21.65;;
22549;SDS011;11441;57.164;-2.120;2022-11-13T12:44:18;32.58;;;19.42;;
22549;SDS011;11441;57.164;-2.120;2022-11-13T12:47:07;43.05;;;23.85;;
22549;SDS011;11441;57.164;-2.120;2022-11-13T12:50:27;42.60;;;24.08;;
22549;SDS011;11441;57.164;-2.120;2022-11-13T12:53:23;43.03;;;24.88;;
22549;SDS011;11441;57.164;-2.120;2022-11-13T12:59:32;39.67;;;21.63;;
22549;SDS011;11441;57.164;-2.120;2022-11-13T13:05:12;47.00;;;23.80;;
22549;SDS011;11441;57.164;-2.120;2022-11-13T13:08:27;49.47;;;24.52;;
22549;SDS011;11441;57.164;-2.120;2022-11-13T13:14:39;32.17;;;19.42;;
22549;SDS011;11441;57.164;-2.120;2022-11-13T13:17:45;39.42;;;22.90;;
22549;SDS011;11441;57.164;-2.120;2022-11-13T13:20:38;40.10;;;22.10;;
22549;SDS011;11441;57.164;-2.120;2022-11-13T13:23:43;34.45;;;20.30;;
22549;SDS011;11441;57.164;-2.120;2022-11-13T13:26:31;42.20;;;22.70;;
22549;SDS011;11441;57.164;-2.120;2022-11-13T13:29:17;33.97;;;20.17;;
22549;SDS011;11441;57.164;-2.120;2022-11-13T13:32:21;37.20;;;21.90;;
22549;SDS011;11441;57.164;-2.120;2022-11-13T13:35:13;33.30;;;18.15;;
22549;SDS011;11441;57.164;-2.120;2022-11-13T13:38:06;32.17;;;18.65;;
22549;SDS011;11441;57.164;-2.120;2022-11-13T13:41:04;32.22;;;19.80;;
22549;SDS011;11441;57.164;-2.120;2022-11-13T13:47:36;26.17;;;16.08;;
22549;SDS011;11441;57.164;-2.120;2022-11-13T13:50:25;30.92;;;18.38;;
22549;SDS011;11441;57.164;-2.120;2022-11-13T13:53:17;28.88;;;17.80;;
22549;SDS011;11441;57.164;-2.120;2022-11-13T13:56:08;30.05;;;18.17;;
22549;SDS011;11441;57.164;-2.120;2022-11-13T13:58:56;31.30;;;16.90;;
22549;SDS011;11441;57.164;-2.120;2022-11-13T14:01:52;26.70;;;16.45;;
22549;SDS011;11441;57.164;-2.120;2022-11-13T14:04:46;26.05;;;16.48;;
22549;SDS011;11441;57.164;-2.120;2022-11-13T14:07:32;23.92;;;16.05;;
22549;SDS011;11441;57.164;-2.120;2022-11-13T14:10:20;22.27;;;14.23;;
22549;SDS011;11441;57.164;-2.120;2022-11-13T14:13:10;24.00;;;14.88;;
22549;SDS011;11441;57.164;-2.120;2022-11-13T14:16:14;19.63;;;14.23;;
22549;SDS011;11441;57.164;-2.120;2022-11-13T14:19:01;23.75;;;15.43;;
22549;SDS011;11441;57.164;-2.120;2022-11-13T14:21:55;21.23;;;15.18;;
22549;SDS011;11441;57.164;-2.120;2022-11-13T14:27:31;22.25;;;14.77;;
22549;SDS011;11441;57.164;-2.120;2022-11-13T14:30:34;23.73;;;13.27;;
22549;SDS011;11441;57.164;-2.120;2022-11-13T14:33:22;17.88;;;12.07;;
22549;SDS011;11441;57.164;-2.120;2022-11-13T14:36:11;23.95;;;15.98;;
22549;SDS011;11441;57.164;-2.120;2022-11-13T14:38:59;17.48;;;10.57;;
22549;SDS011;11441;57.164;-2.120;2022-11-13T14:41:46;16.45;;;12.98;;
22549;SDS011;11441;57.164;-2.120;2022-11-13T14:44:42;16.40;;;11.38;;
22549;SDS011;11441;57.164;-2.120;2022-11-13T14:47:27;24.55;;;14.00;;
22549;SDS011;11441;57.164;-2.120;2022-11-13T14:53:09;25.20;;;13.15;;
22549;SDS011;11441;57.164;-2.120;2022-11-13T14:55:56;21.15;;;13.45;;
22549;SDS011;11441;57.164;-2.120;2022-11-13T14:58:45;24.73;;;14.27;;
22549;SDS011;11441;57.164;-2.120;2022-11-13T15:01:56;24.70;;;13.60;;
22549;SDS011;11441;57.164;-2.120;2022-11-13T15:04:43;26.20;;;15.25;;
22549;SDS011;11441;57.164;-2.120;2022-11-13T15:07:29;21.73;;;14.18;;
22549;SDS011;11441;57.164;-2.120;2022-11-13T15:10:18;20.38;;;12.90;;
22549;SDS011;11441;57.164;-2.120;2022-11-13T15:13:14;18.73;;;13.65;;
22549;SDS011;11441;57.164;-2.120;2022-11-13T15:16:01;15.05;;;10.60;;
22549;SDS011;11441;57.164;-2.120;2022-11-13T15:18:48;18.10;;;11.00;;
22549;SDS011;11441;57.164;-2.120;2022-11-13T15:21:54;17.30;;;11.57;;
22549;SDS011;11441;57.164;-2.120;2022-11-13T15:25:00;15.65;;;11.95;;
22549;SDS011;11441;57.164;-2.120;2022-11-13T15:27:46;21.55;;;15.57;;
22549;SDS011;11441;57.164;-2.120;2022-11-13T15:30:31;14.57;;;10.98;;
22549;SDS011;11441;57.164;-2.120;2022-11-13T15:33:16;15.07;;;10.32;;
22549;SDS011;11441;57.164;-2.120;2022-11-13T15:36:02;16.60;;;11.10;;
22549;SDS011;11441;57.164;-2.120;2022-11-13T15:38:47;12.00;;;9.57;;
22549;SDS011;11441;57.164;-2.120;2022-11-13T15:41:33;21.40;;;11.25;;
22549;SDS011;11441;57.164;-2.120;2022-11-13T15:44:18;18.98;;;10.40;;
22549;SDS011;11441;57.164;-2.120;2022-11-13T15:47:10;17.55;;;13.10;;
22549;SDS011;11441;57.164;-2.120;2022-11-13T15:50:09;14.73;;;10.07;;
22549;SDS011;11441;57.164;-2.120;2022-11-13T15:56:02;14.10;;;9.18;;
22549;SDS011;11441;57.164;-2.120;2022-11-13T15:58:51;11.40;;;7.97;;
22549;SDS011;11441;57.164;-2.120;2022-11-13T16:01:37;14.27;;;10.02;;
22549;SDS011;11441;57.164;-2.120;2022-11-13T16:07:41;14.90;;;10.63;;
22549;SDS011;11441;57.164;-2.120;2022-11-13T16:10:26;17.55;;;10.63;;
22549;SDS011;11441;57.164;-2.120;2022-11-13T16:13:12;21.13;;;10.52;;
22549;SDS011;11441;57.164;-2.120;2022-11-13T16:15:57;17.83;;;10.68;;
22549;SDS011;11441;57.164;-2.120;2022-11-13T16:18:45;17.98;;;10.70;;
22549;SDS011;11441;57.164;-2.120;2022-11-13T16:21:50;13.65;;;10.02;;
22549;SDS011;11441;57.164;-2.120;2022-11-13T16:24:35;19.55;;;10.18;;
22549;SDS011;11441;57.164;-2.120;2022-11-13T16:27:25;17.83;;;11.93;;
22549;SDS011;11441;57.164;-2.120;2022-11-13T16:33:18;14.93;;;9.82;;
22549;SDS011;11441;57.164;-2.120;2022-11-13T16:36:03;13.65;;;9.25;;
22549;SDS011;11441;57.164;-2.120;2022-11-13T16:38:55;15.68;;;11.45;;
22549;SDS011;11441;57.164;-2.120;2022-11-13T16:41:59;15.25;;;9.88;;
22549;SDS011;11441;57.164;-2.120;2022-11-13T16:45:03;11.52;;;9.70;;
22549;SDS011;11441;57.164;-2.120;2022-11-13T16:47:49;14.88;;;10.57;;
22549;SDS011;11441;57.164;-2.120;2022-11-13T16:50:34;13.00;;;8.93;;
22549;SDS011;11441;57.164;-2.120;2022-11-13T16:53:23;12.77;;;9.88;;
22549;SDS011;11441;57.164;-2.120;2022-11-13T16:56:12;15.88;;;10.10;;
22549;SDS011;11441;57.164;-2.120;2022-11-13T16:59:00;20.33;;;11.18;;
22549;SDS011;11441;57.164;-2.120;2022-11-13T17:01:45;19.27;;;11.23;;
22549;SDS011;11441;57.164;-2.120;2022-11-13T17:04:31;18.50;;;10.43;;
22549;SDS011;11441;57.164;-2.120;2022-11-13T17:07:16;15.02;;;10.43;;
22549;SDS011;11441;57.164;-2.120;2022-11-13T17:10:02;18.10;;;11.10;;
22549;SDS011;11441;57.164;-2.120;2022-11-13T17:13:07;18.27;;;11.48;;
22549;SDS011;11441;57.164;-2.120;2022-11-13T17:15:53;17.73;;;11.27;;
22549;SDS011;11441;57.164;-2.120;2022-11-13T17:18:39;20.52;;;10.55;;
22549;SDS011;11441;57.164;-2.120;2022-11-13T17:21:25;19.27;;;11.50;;
22549;SDS011;11441;57.164;-2.120;2022-11-13T17:24:12;23.77;;;11.60;;
22549;SDS011;11441;57.164;-2.120;2022-11-13T17:26:57;20.42;;;9.88;;
22549;SDS011;11441;57.164;-2.120;2022-11-13T17:29:42;17.70;;;9.82;;
22549;SDS011;11441;57.164;-2.120;2022-11-13T17:32:28;16.55;;;9.88;;
22549;SDS011;11441;57.164;-2.120;2022-11-13T17:35:14;22.02;;;11.90;;
22549;SDS011;11441;57.164;-2.120;2022-11-13T17:37:59;17.08;;;11.23;;
22549;SDS011;11441;57.164;-2.120;2022-11-13T17:40:45;15.88;;;9.88;;
22549;SDS011;11441;57.164;-2.120;2022-11-13T17:43:30;23.20;;;12.65;;
22549;SDS011;11441;57.164;-2.120;2022-11-13T17:46:19;17.15;;;11.05;;
22549;SDS011;11441;57.164;-2.120;2022-11-13T17:49:05;14.35;;;10.30;;
22549;SDS011;11441;57.164;-2.120;2022-11-13T17:51:50;14.05;;;9.05;;
22549;SDS011;11441;57.164;-2.120;2022-11-13T17:54:54;18.35;;;11.13;;
22549;SDS011;11441;57.164;-2.120;2022-11-13T18:00:44;17.60;;;9.20;;
22549;SDS011;11441;57.164;-2.120;2022-11-13T18:03:30;13.80;;;9.45;;
22549;SDS011;11441;57.164;-2.120;2022-11-13T18:06:17;15.32;;;10.15;;
22549;SDS011;11441;57.164;-2.120;2022-11-13T18:09:03;17.67;;;10.65;;
22549;SDS011;11441;57.164;-2.120;2022-11-13T18:11:50;12.27;;;8.85;;
22549;SDS011;11441;57.164;-2.120;2022-11-13T18:14:35;12.45;;;8.45;;
22549;SDS011;11441;57.164;-2.120;2022-11-13T18:17:21;11.45;;;8.82;;